sensor_id;sensor_type;location;lat;lon;timestamp;pressure;altitude;pressure_sealevel;temperature;humidity
70902;BME280;58548;47.210;8.618;2023-01-28T00:02:11;94268.69;;;7.80;37.87
70902;BME280;58548;47.210;8.618;2023-01-28T00:04:43;94135.13;;;6.93;37.85
70902;BME280;58548;47.210;8.618;2023-01-28T00:07:09;94138.34;;;7.03;37.72
70902;BME280;58548;47.210;8.618;2023-01-28T00:09:35;94236.53;;;7.81;37.90
70902;BME280;58548;47.210;8.618;2023-01-28T00:12:04;94122.16;;;6.93;37.90
70902;BME280;58548;47.210;8.618;2023-01-28T00:14:33;94130.22;;;7.06;37.87
70902;BME280;58548;47.210;8.618;2023-01-28T00:17:04;94266.16;;;8.03;37.92
70902;BME280;58548;47.210;8.618;2023-01-28T00:19:33;94247.13;;;7.71;37.78
70902;BME280;58548;47.210;8.618;2023-01-28T00:21:59;94279.69;;;7.90;37.96
70902;BME280;58548;47.210;8.618;2023-01-28T00:24:25;94122.09;;;7.01;37.70
70902;BME280;58548;47.210;8.618;2023-01-28T00:26:51;94179.50;;;7.31;38.13
70902;BME280;58548;47.210;8.618;2023-01-28T00:29:19;94258.56;;;7.93;37.73
70902;BME280;58548;47.210;8.618;2023-01-28T00:31:45;94260.19;;;7.86;37.54
70902;BME280;58548;47.210;8.618;2023-01-28T00:34:10;94256.59;;;7.95;37.96
70902;BME280;58548;47.210;8.618;2023-01-28T00:36:36;94262.38;;;8.14;37.47
70902;BME280;58548;47.210;8.618;2023-01-28T00:39:04;94254.97;;;8.03;37.57
70902;BME280;58548;47.210;8.618;2023-01-28T00:41:33;94103.44;;;7.06;37.42
70902;BME280;58548;47.210;8.618;2023-01-28T00:44:01;94123.66;;;7.27;37.79
70902;BME280;58548;47.210;8.618;2023-01-28T00:46:27;94214.34;;;7.93;37.30
70902;BME280;58548;47.210;8.618;2023-01-28T00:48:53;94252.22;;;8.27;37.14
70902;BME280;58548;47.210;8.618;2023-01-28T00:51:20;94135.34;;;7.31;38.01
70902;BME280;58548;47.210;8.618;2023-01-28T00:53:48;94207.16;;;7.72;37.42
70902;BME280;58548;47.210;8.618;2023-01-28T00:56:16;94134.16;;;7.42;37.63
70902;BME280;58548;47.210;8.618;2023-01-28T00:58:42;94099.84;;;7.15;37.46
70902;BME280;58548;47.210;8.618;2023-01-28T01:01:10;94259.25;;;8.19;37.30
70902;BME280;58548;47.210;8.618;2023-01-28T01:03:37;94203.50;;;7.90;37.56
70902;BME280;58548;47.210;8.618;2023-01-28T01:06:08;94157.31;;;7.60;37.00
70902;BME280;58548;47.210;8.618;2023-01-28T01:08:35;94202.41;;;7.76;37.83
70902;BME280;58548;47.210;8.618;2023-01-28T01:11:06;94251.03;;;8.07;37.35
70902;BME280;58548;47.210;8.618;2023-01-28T01:13:35;94166.78;;;7.45;38.19
70902;BME280;58548;47.210;8.618;2023-01-28T01:16:11;94219.25;;;7.88;37.52
70902;BME280;58548;47.210;8.618;2023-01-28T01:18:40;94243.22;;;8.07;37.74
70902;BME280;58548;47.210;8.618;2023-01-28T01:21:15;94110.06;;;7.17;37.64
70902;BME280;58548;47.210;8.618;2023-01-28T01:23:44;94241.66;;;7.97;37.78
70902;BME280;58548;47.210;8.618;2023-01-28T01:26:11;94260.88;;;8.20;37.73
70902;BME280;58548;47.210;8.618;2023-01-28T01:28:37;94237.09;;;7.99;37.38
70902;BME280;58548;47.210;8.618;2023-01-28T01:31:06;94264.94;;;8.22;37.35
70902;BME280;58548;47.210;8.618;2023-01-28T01:33:33;94145.47;;;7.58;37.44
70902;BME280;58548;47.210;8.618;2023-01-28T01:36:04;94130.31;;;7.30;37.51
70902;BME280;58548;47.210;8.618;2023-01-28T01:38:30;94266.28;;;8.10;37.02
70902;BME280;58548;47.210;8.618;2023-01-28T01:40:59;94213.13;;;7.81;37.81
70902;BME280;58548;47.210;8.618;2023-01-28T01:43:47;94260.22;;;8.26;37.08
70902;BME280;58548;47.210;8.618;2023-01-28T01:46:18;94257.38;;;8.04;37.44
70902;BME280;58548;47.210;8.618;2023-01-28T01:48:46;94157.38;;;7.44;37.60
70902;BME280;58548;47.210;8.618;2023-01-28T01:51:18;94253.47;;;8.08;37.19
70902;BME280;58548;47.210;8.618;2023-01-28T01:53:50;94152.84;;;7.37;37.35
70902;BME280;58548;47.210;8.618;2023-01-28T01:56:21;94213.59;;;7.76;37.53
70902;BME280;58548;47.210;8.618;2023-01-28T01:58:52;94246.84;;;7.97;37.52
70902;BME280;58548;47.210;8.618;2023-01-28T02:01:22;94148.91;;;7.42;37.24
70902;BME280;58548;47.210;8.618;2023-01-28T02:04:24;94266.59;;;8.15;37.33
70902;BME280;58548;47.210;8.618;2023-01-28T02:06:43;94264.44;;;8.27;37.55
70902;BME280;58548;47.210;8.618;2023-01-28T02:09:28;94243.06;;;8.08;37.18
70902;BME280;58548;47.210;8.618;2023-01-28T02:14:38;94207.88;;;7.89;37.37
70902;BME280;58548;47.210;8.618;2023-01-28T02:17:06;94240.28;;;8.10;37.53
70902;BME280;58548;47.210;8.618;2023-01-28T02:19:39;94239.94;;;8.13;37.32
70902;BME280;58548;47.210;8.618;2023-01-28T02:30:29;94261.94;;;8.34;36.92
70902;BME280;58548;47.210;8.618;2023-01-28T02:33:10;94028.81;;;6.52;37.24
70902;BME280;58548;47.210;8.618;2023-01-28T02:35:49;94265.63;;;8.16;37.54
70902;BME280;58548;47.210;8.618;2023-01-28T02:38:32;94216.31;;;7.91;37.36
70902;BME280;58548;47.210;8.618;2023-01-28T02:41:07;94256.59;;;8.04;37.51
70902;BME280;58548;47.210;8.618;2023-01-28T02:43:41;94174.25;;;7.48;37.44
70902;BME280;58548;47.210;8.618;2023-01-28T02:49:17;94262.38;;;8.14;37.66
70902;BME280;58548;47.210;8.618;2023-01-28T02:57:35;94222.94;;;8.02;37.38
70902;BME280;58548;47.210;8.618;2023-01-28T03:03:03;94285.44;;;8.25;36.97
70902;BME280;58548;47.210;8.618;2023-01-28T03:05:42;94253.47;;;8.08;37.28
70902;BME280;58548;47.210;8.618;2023-01-28T03:08:45;94149.22;;;7.55;37.81
70902;BME280;58548;47.210;8.618;2023-01-28T03:11:35;94119.88;;;6.90;37.93
70902;BME280;58548;47.210;8.618;2023-01-28T03:14:23;94269.03;;;7.77;37.94
70902;BME280;58548;47.210;8.618;2023-01-28T03:17:17;94123.44;;;6.97;38.01
70902;BME280;58548;47.210;8.618;2023-01-28T03:20:04;94253.53;;;7.92;37.98
70902;BME280;58548;47.210;8.618;2023-01-28T03:22:54;94270.50;;;8.19;37.37
70902;BME280;58548;47.210;8.618;2023-01-28T03:25:44;94190.84;;;7.78;37.66
70902;BME280;58548;47.210;8.618;2023-01-28T03:28:32;94256.22;;;8.07;37.58
70902;BME280;58548;47.210;8.618;2023-01-28T03:31:21;94133.69;;;7.38;37.73
70902;BME280;58548;47.210;8.618;2023-01-28T03:34:09;94217.34;;;7.82;37.77
70902;BME280;58548;47.210;8.618;2023-01-28T03:36:55;94146.81;;;6.97;37.92
70902;BME280;58548;47.210;8.618;2023-01-28T03:39:27;94280.06;;;7.79;38.19
70902;BME280;58548;47.210;8.618;2023-01-28T03:44:32;94167.28;;;7.40;38.26
70902;BME280;58548;47.210;8.618;2023-01-28T03:47:17;94289.69;;;8.18;37.90
70902;BME280;58548;47.210;8.618;2023-01-28T03:49:46;94270.91;;;7.99;37.73
70902;BME280;58548;47.210;8.618;2023-01-28T03:52:17;94282.59;;;8.04;37.73
70902;BME280;58548;47.210;8.618;2023-01-28T03:54:46;94284.41;;;8.26;37.68
70902;BME280;58548;47.210;8.618;2023-01-28T03:57:14;94165.13;;;7.52;37.70
70902;BME280;58548;47.210;8.618;2023-01-28T03:59:43;94286.34;;;8.33;37.84
70902;BME280;58548;47.210;8.618;2023-01-28T04:02:10;94280.38;;;8.24;37.45
70902;BME280;58548;47.210;8.618;2023-01-28T04:04:42;94278.94;;;8.21;37.47
70902;BME280;58548;47.210;8.618;2023-01-28T04:07:11;94287.03;;;8.26;37.74
70902;BME280;58548;47.210;8.618;2023-01-28T04:09:40;94289.69;;;8.18;37.46
70902;BME280;58548;47.210;8.618;2023-01-28T04:12:08;94301.41;;;8.06;38.33
70902;BME280;58548;47.210;8.618;2023-01-28T04:14:37;94179.31;;;7.41;37.96
70902;BME280;58548;47.210;8.618;2023-01-28T04:17:07;94267.66;;;7.97;37.45
70902;BME280;58548;47.210;8.618;2023-01-28T04:19:35;94171.19;;;7.36;37.80
70902;BME280;58548;47.210;8.618;2023-01-28T04:22:05;94159.91;;;7.12;38.05
70902;BME280;58548;47.210;8.618;2023-01-28T04:24:31;94287.28;;;8.08;37.80
70902;BME280;58548;47.210;8.618;2023-01-28T04:26:57;94261.38;;;7.83;37.83
70902;BME280;58548;47.210;8.618;2023-01-28T04:29:25;94295.09;;;8.00;38.13
70902;BME280;58548;47.210;8.618;2023-01-28T04:31:51;94293.28;;;8.09;38.72
70902;BME280;58548;47.210;8.618;2023-01-28T04:34:22;94278.91;;;7.81;38.41
70902;BME280;58548;47.210;8.618;2023-01-28T04:36:50;94261.16;;;7.93;37.71
70902;BME280;58548;47.210;8.618;2023-01-28T04:39:16;94265.06;;;7.89;37.49
70902;BME280;58548;47.210;8.618;2023-01-28T04:41:42;94172.03;;;7.36;37.48
70902;BME280;58548;47.210;8.618;2023-01-28T04:44:10;94150.47;;;7.19;37.92
70902;BME280;58548;47.210;8.618;2023-01-28T04:46:36;94300.75;;;8.12;37.69
70902;BME280;58548;47.210;8.618;2023-01-28T04:49:02;94296.84;;;8.16;38.05
70902;BME280;58548;47.210;8.618;2023-01-28T04:51:28;94213.22;;;7.56;37.77
70902;BME280;58548;47.210;8.618;2023-01-28T04:53:53;94296.22;;;8.06;38.00
70902;BME280;58548;47.210;8.618;2023-01-28T04:56:19;94298.47;;;8.17;38.01
70902;BME280;58548;47.210;8.618;2023-01-28T04:58:45;94309.88;;;8.08;37.62
70902;BME280;58548;47.210;8.618;2023-01-28T05:01:13;94192.47;;;7.39;37.74
70902;BME280;58548;47.210;8.618;2023-01-28T05:03:42;94314.72;;;8.11;37.41
70902;BME280;58548;47.210;8.618;2023-01-28T05:06:09;94305.31;;;8.10;37.91
70902;BME280;58548;47.210;8.618;2023-01-28T05:08:35;94310.22;;;8.05;37.94
70902;BME280;58548;47.210;8.618;2023-01-28T05:11:01;94172.38;;;7.25;37.63
70902;BME280;58548;47.210;8.618;2023-01-28T05:13:27;94291.00;;;8.06;37.81
70902;BME280;58548;47.210;8.618;2023-01-28T05:15:53;94195.44;;;7.20;38.07
70902;BME280;58548;47.210;8.618;2023-01-28T05:18:20;94312.84;;;7.96;37.60
70902;BME280;58548;47.210;8.618;2023-01-28T05:20:48;94218.09;;;7.43;37.89
70902;BME280;58548;47.210;8.618;2023-01-28T05:23:16;94320.31;;;7.91;38.42
70902;BME280;58548;47.210;8.618;2023-01-28T05:25:45;94285.91;;;7.81;37.63
70902;BME280;58548;47.210;8.618;2023-01-28T05:28:12;94291.41;;;7.86;37.83
70902;BME280;58548;47.210;8.618;2023-01-28T05:30:38;94168.50;;;7.13;37.84
70902;BME280;58548;47.210;8.618;2023-01-28T05:33:06;94329.69;;;8.17;37.18
70902;BME280;58548;47.210;8.618;2023-01-28T05:35:35;94327.72;;;8.19;37.85
70902;BME280;58548;47.210;8.618;2023-01-28T05:38:02;94304.66;;;8.08;37.46
70902;BME280;58548;47.210;8.618;2023-01-28T05:40:33;94331.63;;;8.23;37.50
70902;BME280;58548;47.210;8.618;2023-01-28T05:43:01;94333.78;;;8.11;37.62
70902;BME280;58548;47.210;8.618;2023-01-28T05:45:30;94308.63;;;7.95;37.64
70902;BME280;58548;47.210;8.618;2023-01-28T05:48:00;94339.13;;;8.10;38.07
70902;BME280;58548;47.210;8.618;2023-01-28T05:50:26;94234.06;;;7.39;37.72
70902;BME280;58548;47.210;8.618;2023-01-28T05:52:52;94336.84;;;8.15;37.71
70902;BME280;58548;47.210;8.618;2023-01-28T05:55:19;94188.78;;;7.26;37.91
70902;BME280;58548;47.210;8.618;2023-01-28T05:57:47;94327.38;;;8.22;37.89
70902;BME280;58548;47.210;8.618;2023-01-28T06:00:16;94336.19;;;8.13;37.68
70902;BME280;58548;47.210;8.618;2023-01-28T06:02:42;94352.03;;;7.78;38.07
70902;BME280;58548;47.210;8.618;2023-01-28T06:05:10;94319.72;;;7.64;38.33
70902;BME280;58548;47.210;8.618;2023-01-28T06:07:36;94343.78;;;7.83;38.40
70902;BME280;58548;47.210;8.618;2023-01-28T06:10:05;94343.09;;;7.89;37.82
70902;BME280;58548;47.210;8.618;2023-01-28T06:12:34;94256.16;;;7.11;38.10
70902;BME280;58548;47.210;8.618;2023-01-28T06:15:02;94360.66;;;7.70;38.76
70902;BME280;58548;47.210;8.618;2023-01-28T06:17:28;94362.91;;;7.90;38.26
70902;BME280;58548;47.210;8.618;2023-01-28T06:19:57;94227.28;;;7.05;38.60
70902;BME280;58548;47.210;8.618;2023-01-28T06:22:25;94261.84;;;6.81;39.05
70902;BME280;58548;47.210;8.618;2023-01-28T06:24:51;94331.59;;;7.67;38.09
70902;BME280;58548;47.210;8.618;2023-01-28T06:27:17;94365.50;;;7.90;37.96
70902;BME280;58548;47.210;8.618;2023-01-28T06:29:45;94369.59;;;7.93;38.28
70902;BME280;58548;47.210;8.618;2023-01-28T06:32:11;94365.19;;;7.93;38.32
70902;BME280;58548;47.210;8.618;2023-01-28T06:34:39;94315.19;;;7.75;38.27
70902;BME280;58548;47.210;8.618;2023-01-28T06:37:07;94368.72;;;8.09;38.29
70902;BME280;58548;47.210;8.618;2023-01-28T06:39:35;94243.94;;;7.36;38.01
70902;BME280;58548;47.210;8.618;2023-01-28T06:42:01;94347.25;;;8.15;38.09
70902;BME280;58548;47.210;8.618;2023-01-28T06:44:29;94364.47;;;8.16;38.17
70902;BME280;58548;47.210;8.618;2023-01-28T06:46:55;94361.56;;;8.11;38.15
70902;BME280;58548;47.210;8.618;2023-01-28T06:49:23;94356.03;;;8.14;37.69
70902;BME280;58548;47.210;8.618;2023-01-28T06:51:49;94358.91;;;8.27;37.85
70902;BME280;58548;47.210;8.618;2023-01-28T06:54:15;94360.56;;;8.20;37.64
70902;BME280;58548;47.210;8.618;2023-01-28T06:56:43;94350.53;;;8.00;37.73
70902;BME280;58548;47.210;8.618;2023-01-28T06:59:09;94327.84;;;7.78;38.24
70902;BME280;58548;47.210;8.618;2023-01-28T07:01:35;94374.44;;;7.96;38.40
70902;BME280;58548;47.210;8.618;2023-01-28T07:04:03;94249.97;;;7.28;38.32
70902;BME280;58548;47.210;8.618;2023-01-28T07:06:32;94370.38;;;8.02;38.28
70902;BME280;58548;47.210;8.618;2023-01-28T07:09:00;94374.94;;;7.99;38.46
70902;BME280;58548;47.210;8.618;2023-01-28T07:11:28;94365.50;;;7.90;38.37
70902;BME280;58548;47.210;8.618;2023-01-28T07:13:58;94370.38;;;7.93;38.77
70902;BME280;58548;47.210;8.618;2023-01-28T07:16:29;94382.75;;;7.91;38.40
70902;BME280;58548;47.210;8.618;2023-01-28T07:18:55;94370.03;;;8.05;38.86
70902;BME280;58548;47.210;8.618;2023-01-28T07:21:23;94351.84;;;7.88;38.10
70902;BME280;58548;47.210;8.618;2023-01-28T07:23:49;94383.00;;;8.21;37.95
70902;BME280;58548;47.210;8.618;2023-01-28T07:26:15;94383.00;;;8.13;37.80
70902;BME280;58548;47.210;8.618;2023-01-28T07:28:44;94383.00;;;8.21;37.89
70902;BME280;58548;47.210;8.618;2023-01-28T07:31:10;94382.34;;;8.19;38.18
70902;BME280;58548;47.210;8.618;2023-01-28T07:33:38;94297.66;;;7.60;37.59
70902;BME280;58548;47.210;8.618;2023-01-28T07:36:04;94385.63;;;8.13;37.78
70902;BME280;58548;47.210;8.618;2023-01-28T07:38:33;94397.00;;;8.20;38.05
70902;BME280;58548;47.210;8.618;2023-01-28T07:41:01;94397.13;;;8.27;38.09
70902;BME280;58548;47.210;8.618;2023-01-28T07:43:29;94407.66;;;8.34;37.67
70902;BME280;58548;47.210;8.618;2023-01-28T07:45:59;94279.47;;;7.52;37.36
70902;BME280;58548;47.210;8.618;2023-01-28T07:48:25;94402.78;;;8.30;37.38
70902;BME280;58548;47.210;8.618;2023-01-28T07:50:59;94417.81;;;8.20;37.52
70902;BME280;58548;47.210;8.618;2023-01-28T07:53:26;94426.59;;;8.19;37.05
70902;BME280;58548;47.210;8.618;2023-01-28T07:55:58;94382.03;;;8.06;37.73
70902;BME280;58548;47.210;8.618;2023-01-28T07:58:26;94425.13;;;8.08;37.37
70902;BME280;58548;47.210;8.618;2023-01-28T08:00:56;94427.22;;;8.21;37.34
70902;BME280;58548;47.210;8.618;2023-01-28T08:03:24;94415.16;;;8.28;37.71
70902;BME280;58548;47.210;8.618;2023-01-28T08:05:51;94274.47;;;7.42;37.50
70902;BME280;58548;47.210;8.618;2023-01-28T08:08:18;94434.66;;;8.33;37.26
70902;BME280;58548;47.210;8.618;2023-01-28T08:10:49;94292.28;;;7.62;36.75
70902;BME280;58548;47.210;8.618;2023-01-28T08:13:17;94316.47;;;7.70;36.86
70902;BME280;58548;47.210;8.618;2023-01-28T08:15:45;94381.72;;;8.09;37.46
70902;BME280;58548;47.210;8.618;2023-01-28T08:18:18;94422.13;;;8.44;36.83
70902;BME280;58548;47.210;8.618;2023-01-28T08:20:46;94432.69;;;8.59;37.03
70902;BME280;58548;47.210;8.618;2023-01-28T08:23:17;94325.53;;;7.91;36.31
70902;BME280;58548;47.210;8.618;2023-01-28T08:25:44;94310.63;;;7.68;36.79
70902;BME280;58548;47.210;8.618;2023-01-28T08:28:11;94203.72;;;7.23;36.40
70902;BME280;58548;47.210;8.618;2023-01-28T08:30:37;94416.75;;;8.46;36.63
70902;BME280;58548;47.210;8.618;2023-01-28T08:33:10;94443.72;;;8.62;36.43
70902;BME280;58548;47.210;8.618;2023-01-28T08:35:39;94344.31;;;8.10;36.47
70902;BME280;58548;47.210;8.618;2023-01-28T08:38:06;94346.47;;;7.98;36.35
70902;BME280;58548;47.210;8.618;2023-01-28T08:40:34;94455.44;;;8.66;37.24
70902;BME280;58548;47.210;8.618;2023-01-28T08:43:00;94455.47;;;8.57;36.66
70902;BME280;58548;47.210;8.618;2023-01-28T08:45:27;94469.91;;;8.60;36.81
70902;BME280;58548;47.210;8.618;2023-01-28T08:47:59;94359.56;;;7.73;36.18
70902;BME280;58548;47.210;8.618;2023-01-28T08:50:31;94449.59;;;8.55;36.79
70902;BME280;58548;47.210;8.618;2023-01-28T08:53:00;94447.97;;;8.63;36.47
70902;BME280;58548;47.210;8.618;2023-01-28T08:55:27;94337.56;;;7.92;36.50
70902;BME280;58548;47.210;8.618;2023-01-28T08:57:56;94331.56;;;7.92;36.48
70902;BME280;58548;47.210;8.618;2023-01-28T09:00:24;94463.97;;;8.83;36.30
70902;BME280;58548;47.210;8.618;2023-01-28T09:02:58;94422.19;;;8.76;36.21
70902;BME280;58548;47.210;8.618;2023-01-28T09:05:24;94325.03;;;7.96;35.76
70902;BME280;58548;47.210;8.618;2023-01-28T09:07:53;94464.50;;;8.70;35.99
70902;BME280;58548;47.210;8.618;2023-01-28T09:10:18;94295.38;;;7.65;36.29
70902;BME280;58548;47.210;8.618;2023-01-28T09:12:47;94482.59;;;8.71;35.96
70902;BME280;58548;47.210;8.618;2023-01-28T09:15:16;94488.25;;;8.83;35.50
70902;BME280;58548;47.210;8.618;2023-01-28T09:17:44;94348.97;;;7.83;35.94
70902;BME280;58548;47.210;8.618;2023-01-28T09:20:10;94472.78;;;8.82;35.77
70902;BME280;58548;47.210;8.618;2023-01-28T09:22:37;94474.28;;;8.76;35.83
70902;BME280;58548;47.210;8.618;2023-01-28T09:25:04;94481.66;;;9.04;35.34
70902;BME280;58548;47.210;8.618;2023-01-28T09:27:30;94480.03;;;9.03;35.51
70902;BME280;58548;47.210;8.618;2023-01-28T09:29:58;94419.69;;;8.51;35.53
70902;BME280;58548;47.210;8.618;2023-01-28T09:32:29;94483.47;;;8.95;35.36
70902;BME280;58548;47.210;8.618;2023-01-28T09:34:57;94448.22;;;8.76;35.41
70902;BME280;58548;47.210;8.618;2023-01-28T09:37:22;94482.44;;;9.04;35.16
70902;BME280;58548;47.210;8.618;2023-01-28T09:39:48;94461.47;;;8.98;35.16
70902;BME280;58548;47.210;8.618;2023-01-28T09:47:50;94371.03;;;8.43;34.43
70902;BME280;58548;47.210;8.618;2023-01-28T09:50:35;94459.53;;;9.00;34.65
70902;BME280;58548;47.210;8.618;2023-01-28T09:53:15;94488.50;;;9.05;34.65
70902;BME280;58548;47.210;8.618;2023-01-28T09:55:48;94490.38;;;9.19;34.74
70902;BME280;58548;47.210;8.618;2023-01-28T09:58:17;94357.72;;;8.38;34.35
70902;BME280;58548;47.210;8.618;2023-01-28T10:00:54;94503.25;;;9.21;34.48
70902;BME280;58548;47.210;8.618;2023-01-28T10:06:12;94491.56;;;9.40;34.84
70902;BME280;58548;47.210;8.618;2023-01-28T10:14:43;94445.81;;;9.38;33.91
70902;BME280;58548;47.210;8.618;2023-01-28T10:17:26;94478.25;;;9.58;33.40
70902;BME280;58548;47.210;8.618;2023-01-28T10:19:59;94484.59;;;9.56;33.51
70902;BME280;58548;47.210;8.618;2023-01-28T10:22:38;94363.88;;;8.85;33.82
70902;BME280;58548;47.210;8.618;2023-01-28T10:25:20;94441.00;;;9.49;33.95
70902;BME280;58548;47.210;8.618;2023-01-28T10:27:49;94476.75;;;9.64;33.96
70902;BME280;58548;47.210;8.618;2023-01-28T10:35:24;94482.38;;;9.53;33.53
70902;BME280;58548;47.210;8.618;2023-01-28T10:38:01;94354.38;;;8.69;33.18
70902;BME280;58548;47.210;8.618;2023-01-28T10:40:31;94463.69;;;9.64;33.44
70902;BME280;58548;47.210;8.618;2023-01-28T10:42:56;94464.50;;;9.64;33.04
70902;BME280;58548;47.210;8.618;2023-01-28T10:45:27;94447.06;;;9.65;33.00
70902;BME280;58548;47.210;8.618;2023-01-28T10:47:59;94464.78;;;9.70;32.85
70902;BME280;58548;47.210;8.618;2023-01-28T10:50:28;94441.97;;;9.48;32.87
70902;BME280;58548;47.210;8.618;2023-01-28T10:52:55;94459.13;;;9.66;33.18
70902;BME280;58548;47.210;8.618;2023-01-28T10:58:20;94464.69;;;9.40;33.42
70902;BME280;58548;47.210;8.618;2023-01-28T11:00:53;94336.66;;;8.65;33.19
70902;BME280;58548;47.210;8.618;2023-01-28T11:03:22;94474.56;;;9.53;33.44
70902;BME280;58548;47.210;8.618;2023-01-28T11:05:55;94465.72;;;9.54;33.22
70902;BME280;58548;47.210;8.618;2023-01-28T11:08:29;94363.47;;;8.73;33.48
70902;BME280;58548;47.210;8.618;2023-01-28T11:10:56;94467.41;;;9.46;33.50
70902;BME280;58548;47.210;8.618;2023-01-28T11:13:27;94325.03;;;8.44;33.52
70902;BME280;58548;47.210;8.618;2023-01-28T11:16:09;94447.56;;;8.82;33.61
70902;BME280;58548;47.210;8.618;2023-01-28T11:18:45;94362.53;;;8.18;34.23
70902;BME280;58548;47.210;8.618;2023-01-28T11:21:19;94349.13;;;8.29;33.95
70902;BME280;58548;47.210;8.618;2023-01-28T11:23:53;94447.03;;;8.95;33.96
70902;BME280;58548;47.210;8.618;2023-01-28T11:26:23;94470.56;;;9.10;34.19
70902;BME280;58548;47.210;8.618;2023-01-28T11:28:56;94358.50;;;8.55;33.42
70902;BME280;58548;47.210;8.618;2023-01-28T11:31:23;94480.03;;;9.03;34.10
70902;BME280;58548;47.210;8.618;2023-01-28T11:33:52;94490.13;;;9.06;33.65
70902;BME280;58548;47.210;8.618;2023-01-28T11:36:31;94469.53;;;9.19;33.99
70902;BME280;58548;47.210;8.618;2023-01-28T11:39:02;94474.28;;;9.39;33.66
70902;BME280;58548;47.210;8.618;2023-01-28T11:41:37;94467.78;;;9.12;33.71
70902;BME280;58548;47.210;8.618;2023-01-28T11:52:37;94478.31;;;9.18;33.79
70902;BME280;58548;47.210;8.618;2023-01-28T12:09:57;94482.56;;;9.11;33.71
70902;BME280;58548;47.210;8.618;2023-01-28T12:21:53;94408.63;;;9.12;33.07
70902;BME280;58548;47.210;8.618;2023-01-28T12:37:40;94460.38;;;9.47;33.07
70902;BME280;58548;47.210;8.618;2023-01-28T12:40:26;94460.72;;;9.44;32.36
70902;BME280;58548;47.210;8.618;2023-01-28T12:43:05;94458.53;;;9.56;32.80
70902;BME280;58548;47.210;8.618;2023-01-28T12:45:38;94462.25;;;9.61;32.91
70902;BME280;58548;47.210;8.618;2023-01-28T12:48:15;94379.94;;;8.97;32.30
70902;BME280;58548;47.210;8.618;2023-01-28T12:56:39;94368.38;;;8.92;32.80
70902;BME280;58548;47.210;8.618;2023-01-28T12:59:21;94481.69;;;9.27;33.05
70902;BME280;58548;47.210;8.618;2023-01-28T13:07:21;94403.50;;;9.04;33.12
70902;BME280;58548;47.210;8.618;2023-01-28T13:10:02;94457.03;;;9.38;32.42
70902;BME280;58548;47.210;8.618;2023-01-28T13:12:32;94338.41;;;8.72;32.09
70902;BME280;58548;47.210;8.618;2023-01-28T13:15:00;94342.44;;;8.75;32.16
70902;BME280;58548;47.210;8.618;2023-01-28T13:17:29;94345.88;;;8.75;32.53
70902;BME280;58548;47.210;8.618;2023-01-28T13:19:58;94469.69;;;9.49;32.26
70902;BME280;58548;47.210;8.618;2023-01-28T13:22:25;94476.44;;;9.59;32.33
70902;BME280;58548;47.210;8.618;2023-01-28T13:24:54;94477.44;;;9.58;32.80
70902;BME280;58548;47.210;8.618;2023-01-28T13:27:27;94370.41;;;8.81;32.69
70902;BME280;58548;47.210;8.618;2023-01-28T13:30:05;94473.38;;;9.32;32.02
70902;BME280;58548;47.210;8.618;2023-01-28T13:32:34;94487.03;;;9.34;32.71
70902;BME280;58548;47.210;8.618;2023-01-28T13:35:23;94487.03;;;9.34;32.70
70902;BME280;58548;47.210;8.618;2023-01-28T13:37:55;94493.16;;;9.18;32.93
70902;BME280;58548;47.210;8.618;2023-01-28T13:40:28;94465.13;;;8.88;33.39
70902;BME280;58548;47.210;8.618;2023-01-28T13:43:24;94470.81;;;8.84;32.91
70902;BME280;58548;47.210;8.618;2023-01-28T13:45:58;94493.22;;;9.01;32.91
70902;BME280;58548;47.210;8.618;2023-01-28T13:50:56;94504.00;;;8.98;32.30
70902;BME280;58548;47.210;8.618;2023-01-28T13:53:26;94514.50;;;9.13;32.30
70902;BME280;58548;47.210;8.618;2023-01-28T13:55:57;94418.00;;;8.67;32.03
70902;BME280;58548;47.210;8.618;2023-01-28T14:04:27;94405.69;;;8.52;32.75
70902;BME280;58548;47.210;8.618;2023-01-28T14:12:15;94407.06;;;8.23;32.50
70902;BME280;58548;47.210;8.618;2023-01-28T14:15:21;94518.06;;;8.64;32.86
70902;BME280;58548;47.210;8.618;2023-01-28T14:17:55;94504.16;;;8.07;33.18
70902;BME280;58548;47.210;8.618;2023-01-28T14:22:56;94491.91;;;8.57;33.22
70902;BME280;58548;47.210;8.618;2023-01-28T14:25:36;94536.72;;;8.93;32.67
70902;BME280;58548;47.210;8.618;2023-01-28T14:28:11;94544.53;;;8.93;32.47
70902;BME280;58548;47.210;8.618;2023-01-28T14:30:53;94542.19;;;8.33;32.77
70902;BME280;58548;47.210;8.618;2023-01-28T14:33:22;94540.41;;;8.42;32.85
70902;BME280;58548;47.210;8.618;2023-01-28T14:35:52;94547.06;;;8.36;32.71
70902;BME280;58548;47.210;8.618;2023-01-28T14:38:20;94551.28;;;8.45;33.38
70902;BME280;58548;47.210;8.618;2023-01-28T14:40:54;94439.47;;;7.88;32.80
70902;BME280;58548;47.210;8.618;2023-01-28T14:43:26;94452.94;;;7.91;33.35
70902;BME280;58548;47.210;8.618;2023-01-28T15:01:47;94535.50;;;8.55;33.04
70902;BME280;58548;47.210;8.618;2023-01-28T15:04:22;94524.78;;;8.34;32.83
70902;BME280;58548;47.210;8.618;2023-01-28T15:06:49;94567.41;;;8.49;33.31
70902;BME280;58548;47.210;8.618;2023-01-28T15:09:15;94551.13;;;8.39;33.35
70902;BME280;58548;47.210;8.618;2023-01-28T15:11:45;94416.56;;;7.50;33.03
70902;BME280;58548;47.210;8.618;2023-01-28T15:14:23;94569.84;;;8.34;33.47
70902;BME280;58548;47.210;8.618;2023-01-28T15:16:50;94568.06;;;8.51;33.26
70902;BME280;58548;47.210;8.618;2023-01-28T15:19:29;94531.13;;;8.06;33.47
70902;BME280;58548;47.210;8.618;2023-01-28T15:22:02;94433.63;;;7.61;33.40
70902;BME280;58548;47.210;8.618;2023-01-28T15:24:30;94563.50;;;8.53;33.19
70902;BME280;58548;47.210;8.618;2023-01-28T15:26:58;94589.19;;;8.56;33.13
70902;BME280;58548;47.210;8.618;2023-01-28T15:29:33;94456.88;;;7.79;33.42
70902;BME280;58548;47.210;8.618;2023-01-28T15:32:01;94569.84;;;8.51;33.45
70902;BME280;58548;47.210;8.618;2023-01-28T15:34:29;94436.56;;;7.66;33.28
70902;BME280;58548;47.210;8.618;2023-01-28T15:36:56;94594.09;;;8.59;32.84
70902;BME280;58548;47.210;8.618;2023-01-28T15:39:28;94560.88;;;8.62;33.29
70902;BME280;58548;47.210;8.618;2023-01-28T15:41:56;94501.69;;;8.14;33.00
70902;BME280;58548;47.210;8.618;2023-01-28T15:46:59;94606.59;;;8.64;33.03
70902;BME280;58548;47.210;8.618;2023-01-28T15:49:41;94599.63;;;8.56;33.13